Time;durP1;ratioP1;P1;durP2;ratioP2;P2;SDS_P1;SDS_P2;PMS_P1;PMS_P2;Temp;Humidity;BMP_temperature;BMP_pressure;BME280_temperature;BME280_humidity;BME280_pressure;Samples;Min_cycle;Max_cycle;Signal;HPM_P1;HPM_P2
2023/10/21 00:02:21;;;;;;;0.00;0.00;;;14.50;99.90;;;;;;5091919;28;20183;-61
2023/10/21 00:04:47;;;;;;;0.00;0.00;;;14.50;99.90;;;;;;5092255;28;20275;-60
2023/10/21 00:07:12;;;;;;;0.00;0.00;;;14.50;99.90;;;;;;5091669;28;20172;-61
2023/10/21 00:09:38;;;;;;;0.00;0.00;;;14.40;99.90;;;;;;5091770;28;20235;-60
2023/10/21 00:12:06;;;;;;;0.00;0.00;;;14.40;99.90;;;;;;5091704;28;20195;-60
2023/10/21 00:14:32;;;;;;;0.00;0.00;;;14.40;99.90;;;;;;5091884;28;20233;-61
2023/10/21 00:16:57;;;;;;;0.00;0.00;;;14.30;99.90;;;;;;5091982;28;20251;-60
2023/10/21 00:19:23;;;;;;;0.00;0.00;;;14.40;99.90;;;;;;5091934;28;20176;-60
2023/10/21 00:21:48;;;;;;;0.00;0.00;;;14.40;99.90;;;;;;5091964;28;20184;-60
2023/10/21 00:24:14;;;;;;;0.00;0.00;;;14.40;99.90;;;;;;5091594;28;20683;-61
2023/10/21 00:26:49;;;;;;;0.00;0.00;;;14.40;99.90;;;;;;5091456;28;20168;-61
2023/10/21 00:29:16;;;;;;;0.00;0.00;;;14.40;99.90;;;;;;5091735;28;20187;-60
2023/10/21 00:31:43;;;;;;;0.00;0.00;;;14.40;99.90;;;;;;5091249;28;20712;-62
2023/10/21 00:34:09;;;;;;;0.00;0.00;;;14.40;99.90;;;;;;5091114;28;20177;-61
2023/10/21 00:36:34;;;;;;;0.00;0.00;;;14.40;99.90;;;;;;5091637;28;20639;-60
2023/10/21 00:39:01;;;;;;;0.00;0.00;;;14.40;99.90;;;;;;5090397;28;20180;-60
2023/10/21 00:41:27;;;;;;;0.00;0.00;;;14.40;99.90;;;;;;5091605;28;20184;-60
2023/10/21 00:43:52;;;;;;;0.00;0.00;;;14.40;99.90;;;;;;5091298;28;20180;-60
2023/10/21 00:46:18;;;;;;;0.00;0.00;;;14.40;99.90;;;;;;5090844;28;20262;-60
2023/10/21 00:48:48;;;;;;;0.00;0.00;;;14.40;99.90;;;;;;5091354;28;20546;-60
2023/10/21 00:51:15;;;;;;;0.00;0.00;;;14.50;99.90;;;;;;5091418;28;20241;-60
2023/10/21 00:53:41;;;;;;;0.00;0.00;;;14.50;99.90;;;;;;5091237;28;20289;-60
2023/10/21 00:56:07;;;;;;;0.00;0.00;;;14.50;99.90;;;;;;5091108;28;20247;-60
2023/10/21 00:58:33;;;;;;;0.00;0.00;;;14.50;99.90;;;;;;5090604;28;20636;-60
2023/10/21 01:01:08;;;;;;;0.00;0.00;;;14.60;99.90;;;;;;5091002;28;20255;-60
2023/10/21 01:03:35;;;;;;;0.00;0.00;;;14.60;99.90;;;;;;5090711;28;20187;-60
2023/10/21 01:06:01;;;;;;;0.00;0.00;;;14.60;99.90;;;;;;5090829;28;20569;-59
2023/10/21 01:08:26;;;;;;;0.00;0.00;;;14.70;99.90;;;;;;5090773;28;20222;-59
2023/10/21 01:10:52;;;;;;;0.00;0.00;;;14.80;99.90;;;;;;5091568;28;20670;-60
2023/10/21 01:13:18;;;;;;;0.00;0.00;;;14.80;99.90;;;;;;5094787;28;20183;-60
2023/10/21 01:15:44;;;;;;;0.00;0.00;;;14.80;99.90;;;;;;5094643;28;20188;-60
2023/10/21 01:18:10;;;;;;;0.00;0.00;;;14.80;99.90;;;;;;5094595;28;20191;-60
2023/10/21 01:20:39;;;;;;;0.00;0.00;;;14.70;99.90;;;;;;5094502;28;20233;-60
2023/10/21 01:23:06;;;;;;;0.00;0.00;;;14.70;99.90;;;;;;5082542;28;20555;-60
2023/10/21 01:25:32;;;;;;;0.00;0.00;;;14.70;99.90;;;;;;5094727;28;20190;-60
2023/10/21 01:27:58;;;;;;;0.00;0.00;;;14.70;99.90;;;;;;5094652;28;20561;-60
2023/10/21 01:30:24;;;;;;;0.00;0.00;;;14.70;99.90;;;;;;5094251;28;20276;-60
2023/10/21 01:32:50;;;;;;;0.00;0.00;;;14.70;99.90;;;;;;5093877;28;20228;-60
2023/10/21 01:35:16;;;;;;;0.00;0.00;;;14.70;99.90;;;;;;5094469;28;20184;-60
2023/10/21 01:37:43;;;;;;;0.00;0.00;;;14.70;99.90;;;;;;5094384;28;20184;-61
2023/10/21 01:40:12;;;;;;;0.00;0.00;;;14.80;99.90;;;;;;5093265;28;20184;-60
2023/10/21 01:42:41;;;;;;;0.00;0.00;;;14.80;99.90;;;;;;5092665;28;20595;-60
2023/10/21 01:45:08;;;;;;;0.00;0.00;;;14.80;99.90;;;;;;5087230;28;20169;-61
2023/10/21 01:47:35;;;;;;;0.00;0.00;;;14.80;99.90;;;;;;5094227;28;20187;-60
2023/10/21 01:50:03;;;;;;;0.00;0.00;;;14.90;99.90;;;;;;5092754;28;20212;-60
2023/10/21 01:52:28;;;;;;;0.00;0.00;;;15.00;99.90;;;;;;5093635;28;20183;-60
2023/10/21 01:54:54;;;;;;;0.00;0.00;;;15.00;99.90;;;;;;5092870;28;20176;-60
2023/10/21 01:57:20;;;;;;;0.00;0.00;;;15.10;99.90;;;;;;5093406;28;20194;-61
2023/10/21 01:59:45;;;;;;;0.00;0.00;;;15.10;99.90;;;;;;5093025;28;20258;-60
2023/10/21 02:02:11;;;;;;;0.00;0.00;;;15.20;99.90;;;;;;5094064;28;20200;-60
2023/10/21 02:04:37;;;;;;;0.00;0.00;;;15.20;99.90;;;;;;5094379;28;20172;-60
2023/10/21 02:07:03;;;;;;;0.00;0.00;;;15.30;99.90;;;;;;5093942;28;20600;-60
2023/10/21 02:09:28;;;;;;;0.00;0.00;;;15.30;99.90;;;;;;5094048;28;20283;-60
2023/10/21 02:11:57;;;;;;;0.00;0.00;;;15.40;99.90;;;;;;5094217;28;20271;-60
2023/10/21 02:14:23;;;;;;;0.00;0.00;;;15.40;99.90;;;;;;5093824;28;20283;-61
2023/10/21 02:16:50;;;;;;;0.00;0.00;;;15.50;99.90;;;;;;5094196;28;20258;-61
2023/10/21 02:19:16;;;;;;;0.00;0.00;;;15.50;99.90;;;;;;5094295;28;20168;-61
2023/10/21 02:21:41;;;;;;;0.00;0.00;;;15.60;99.90;;;;;;5092839;28;20305;-60
2023/10/21 02:24:07;;;;;;;0.00;0.00;;;15.50;99.90;;;;;;5094012;28;20829;-61
2023/10/21 02:26:32;;;;;;;0.00;0.00;;;15.40;99.90;;;;;;5094155;28;20192;-60
2023/10/21 02:28:58;;;;;;;0.00;0.00;;;15.30;99.90;;;;;;5094074;28;20505;-59
2023/10/21 02:31:24;;;;;;;0.00;0.00;;;15.20;99.90;;;;;;5093571;28;20562;-61
2023/10/21 02:33:49;;;;;;;0.00;0.00;;;15.10;99.90;;;;;;5093665;28;20249;-60
2023/10/21 02:36:15;;;;;;;0.00;0.00;;;15.10;99.90;;;;;;5094014;28;20180;-60
2023/10/21 02:38:41;;;;;;;0.00;0.00;;;15.10;99.90;;;;;;5093775;28;20508;-60
2023/10/21 02:41:06;;;;;;;0.00;0.00;;;15.10;99.90;;;;;;5093850;28;20172;-60
2023/10/21 02:43:32;;;;;;;0.00;0.00;;;15.00;99.90;;;;;;5093764;28;20176;-60
2023/10/21 02:46:07;;;;;;;0.00;0.00;;;14.90;99.90;;;;;;5093489;28;20177;-60
2023/10/21 02:48:33;;;;;;;0.00;0.00;;;14.80;99.90;;;;;;5093654;28;20168;-59
2023/10/21 02:50:58;;;;;;;0.00;0.00;;;14.80;99.90;;;;;;5092154;28;20215;-60
2023/10/21 02:53:23;;;;;;;0.00;0.00;;;14.70;99.90;;;;;;5075093;28;20547;-60
2023/10/21 02:55:50;;;;;;;0.00;0.00;;;14.80;99.90;;;;;;5093331;28;20626;-60
2023/10/21 02:58:15;;;;;;;0.00;0.00;;;14.80;99.90;;;;;;5093132;28;20183;-60
2023/10/21 03:00:41;;;;;;;0.00;0.00;;;14.80;99.90;;;;;;5093227;28;20188;-60
2023/10/21 03:03:06;;;;;;;0.00;0.00;;;14.90;99.90;;;;;;5093142;28;20199;-60
2023/10/21 03:05:32;;;;;;;0.00;0.00;;;14.90;99.90;;;;;;5091219;28;20223;-60
2023/10/21 03:07:57;;;;;;;0.00;0.00;;;15.00;99.90;;;;;;5092199;28;20172;-61
2023/10/21 03:10:23;;;;;;;0.00;0.00;;;15.00;99.90;;;;;;5092315;28;20581;-62
2023/10/21 03:12:48;;;;;;;0.00;0.00;;;15.10;99.90;;;;;;5092579;28;20210;-62
2023/10/21 03:15:14;;;;;;;0.00;0.00;;;15.10;99.90;;;;;;5091880;28;20182;-60
2023/10/21 03:17:39;;;;;;;0.00;0.00;;;15.20;99.90;;;;;;5092548;28;20516;-60
2023/10/21 03:20:06;;;;;;;0.00;0.00;;;15.20;99.90;;;;;;5092340;28;20666;-61
2023/10/21 03:22:32;;;;;;;0.00;0.00;;;15.20;99.90;;;;;;5092445;28;20179;-61
2023/10/21 03:24:57;;;;;;;0.00;0.00;;;15.20;99.90;;;;;;5091608;28;20184;-62
2023/10/21 03:27:23;;;;;;;0.00;0.00;;;15.20;99.90;;;;;;5092010;28;20176;-62
2023/10/21 03:29:49;;;;;;;0.00;0.00;;;15.20;99.90;;;;;;5092137;28;20200;-61
2023/10/21 03:32:15;;;;;;;0.00;0.00;;;15.20;99.90;;;;;;5091909;28;20307;-61
2023/10/21 03:34:40;;;;;;;0.00;0.00;;;15.20;99.90;;;;;;5092207;28;20262;-61
2023/10/21 03:37:07;;;;;;;0.00;0.00;;;15.20;99.90;;;;;;5091682;28;20172;-62
2023/10/21 03:39:33;;;;;;;0.00;0.00;;;15.20;99.90;;;;;;5090738;28;20267;-62
2023/10/21 03:41:58;;;;;;;0.00;0.00;;;15.20;99.90;;;;;;5090375;28;20251;-61
2023/10/21 03:44:25;;;;;;;0.00;0.00;;;15.20;99.90;;;;;;5091897;28;20184;-62
2023/10/21 03:46:50;;;;;;;0.00;0.00;;;15.20;99.90;;;;;;5091812;28;20215;-61
2023/10/21 03:49:17;;;;;;;0.00;0.00;;;15.20;99.90;;;;;;5091772;28;20211;-61
2023/10/21 03:51:43;;;;;;;0.00;0.00;;;15.20;99.90;;;;;;5091957;28;20192;-61
2023/10/21 03:54:08;;;;;;;0.00;0.00;;;15.20;99.90;;;;;;5091591;28;20536;-62
2023/10/21 03:56:34;;;;;;;0.00;0.00;;;15.20;99.90;;;;;;5091845;28;20180;-62
2023/10/21 03:58:59;;;;;;;0.00;0.00;;;15.20;99.90;;;;;;5091595;28;20175;-60
2023/10/21 04:01:25;;;;;;;0.00;0.00;;;15.10;99.90;;;;;;5091713;28;20192;-61
2023/10/21 04:03:51;;;;;;;0.00;0.00;;;15.10;99.90;;;;;;5092063;28;20587;-60
2023/10/21 04:06:17;;;;;;;0.00;0.00;;;15.10;99.90;;;;;;5091924;28;20180;-61
2023/10/21 04:08:43;;;;;;;0.00;0.00;;;15.00;99.90;;;;;;5091567;28;20521;-62
2023/10/21 04:11:09;;;;;;;0.00;0.00;;;15.00;99.90;;;;;;5091264;28;20708;-62
2023/10/21 04:13:35;;;;;;;0.00;0.00;;;15.00;99.90;;;;;;5091552;28;20233;-60
2023/10/21 04:16:01;;;;;;;0.00;0.00;;;15.00;99.90;;;;;;5091627;28;20529;-61
2023/10/21 04:18:27;;;;;;;0.00;0.00;;;15.00;99.90;;;;;;5091326;28;20229;-61
2023/10/21 04:20:52;;;;;;;0.00;0.00;;;15.00;99.90;;;;;;5091584;28;20229;-60
2023/10/21 04:23:18;;;;;;;0.00;0.00;;;15.00;99.90;;;;;;5089598;28;20184;-61
2023/10/21 04:25:43;;;;;;;0.00;0.00;;;14.90;99.90;;;;;;5091172;28;20196;-60
2023/10/21 04:28:10;;;;;;;0.00;0.00;;;14.90;99.90;;;;;;5090922;28;20176;-60
2023/10/21 04:30:35;;;;;;;0.00;0.00;;;14.90;99.90;;;;;;5091118;28;20216;-61
2023/10/21 04:33:01;;;;;;;0.00;0.00;;;14.90;99.90;;;;;;5090680;28;20227;-61
2023/10/21 04:35:28;;;;;;;0.00;0.00;;;14.90;99.90;;;;;;5089752;28;20182;-62
2023/10/21 04:37:54;;;;;;;0.00;0.00;;;15.00;99.90;;;;;;5091040;28;20547;-62
2023/10/21 04:40:20;;;;;;;0.00;0.00;;;15.00;99.90;;;;;;5089944;28;20179;-62
2023/10/21 04:42:45;;;;;;;0.00;0.00;;;15.00;99.90;;;;;;5090490;28;20236;-62
2023/10/21 04:45:11;;;;;;;0.00;0.00;;;15.00;99.90;;;;;;5089689;28;20179;-61
2023/10/21 04:47:37;;;;;;;0.00;0.00;;;15.00;99.90;;;;;;5089519;28;20674;-61
2023/10/21 04:50:04;;;;;;;0.00;0.00;;;15.00;99.90;;;;;;5091129;28;20196;-60
2023/10/21 04:52:29;;;;;;;0.00;0.00;;;14.90;99.90;;;;;;5091132;28;20716;-60
2023/10/21 04:54:55;;;;;;;0.00;0.00;;;14.90;99.90;;;;;;5091063;28;20214;-61
2023/10/21 04:57:20;;;;;;;0.20;0.20;;;14.90;99.90;;;;;;5089601;28;20662;-61
2023/10/21 04:59:46;;;;;;;0.00;0.00;;;14.90;99.90;;;;;;5090623;28;20172;-61
2023/10/21 05:02:11;;;;;;;0.00;0.00;;;14.90;99.90;;;;;;5090853;28;20173;-61
2023/10/21 05:04:38;;;;;;;0.00;0.00;;;14.90;99.90;;;;;;5090975;28;20179;-61
2023/10/21 05:07:04;;;;;;;0.00;0.00;;;14.90;99.90;;;;;;5089882;28;20208;-62
2023/10/21 05:09:30;;;;;;;0.00;0.00;;;14.90;99.90;;;;;;5090372;28;20210;-61
2023/10/21 05:11:56;;;;;;;0.00;0.00;;;14.90;99.90;;;;;;5090700;28;20216;-61
2023/10/21 05:14:21;;;;;;;0.00;0.00;;;14.90;99.90;;;;;;5090915;28;20260;-62
2023/10/21 05:16:47;;;;;;;0.00;0.00;;;14.90;99.90;;;;;;5089939;28;20180;-61
2023/10/21 05:19:12;;;;;;;0.00;0.00;;;15.00;99.90;;;;;;5090476;28;20258;-61
2023/10/21 05:21:38;;;;;;;0.00;0.00;;;15.00;99.90;;;;;;5089698;28;20594;-61
2023/10/21 05:24:04;;;;;;;0.00;0.00;;;15.00;99.90;;;;;;5089447;28;20685;-61
2023/10/21 05:26:29;;;;;;;0.00;0.00;;;15.00;99.90;;;;;;5090342;28;20218;-61
2023/10/21 05:28:57;;;;;;;0.00;0.00;;;15.00;99.90;;;;;;5090856;28;20234;-61
2023/10/21 05:31:23;;;;;;;0.00;0.00;;;15.00;99.90;;;;;;5089706;28;20634;-61
2023/10/21 05:33:49;;;;;;;0.00;0.00;;;14.90;99.90;;;;;;5090728;28;20196;-61
2023/10/21 05:36:14;;;;;;;0.00;0.00;;;14.90;99.90;;;;;;5090692;28;20176;-62
2023/10/21 05:38:40;;;;;;;0.00;0.00;;;14.90;99.90;;;;;;5090408;28;20184;-61
2023/10/21 05:41:05;;;;;;;0.00;0.00;;;14.90;99.90;;;;;;5090372;28;20176;-62
2023/10/21 05:43:31;;;;;;;0.00;0.00;;;14.90;99.90;;;;;;5089314;28;20278;-64
2023/10/21 05:45:58;;;;;;;0.00;0.00;;;14.90;99.90;;;;;;5089659;28;20172;-62
2023/10/21 05:48:24;;;;;;;0.00;0.00;;;14.80;99.90;;;;;;5090437;28;20176;-60
2023/10/21 05:50:51;;;;;;;0.08;0.08;;;14.80;99.90;;;;;;5090592;28;20328;-61
2023/10/21 05:53:16;;;;;;;0.00;0.00;;;14.80;99.90;;;;;;5090607;28;20204;-61
2023/10/21 05:55:43;;;;;;;0.00;0.00;;;14.70;99.90;;;;;;5091149;28;20227;-61
2023/10/21 05:58:09;;;;;;;0.00;0.00;;;14.70;99.90;;;;;;5094341;28;20160;-59
2023/10/21 06:00:38;;;;;;;0.00;0.00;;;14.70;99.90;;;;;;5093304;28;20203;-62
2023/10/21 06:03:06;;;;;;;0.03;0.03;;;14.70;99.90;;;;;;5093034;28;20280;-60
2023/10/21 06:05:32;;;;;;;0.00;0.00;;;14.70;99.90;;;;;;5084009;28;20200;-61
2023/10/21 06:07:58;;;;;;;0.00;0.00;;;14.80;99.90;;;;;;5079337;28;20176;-60
2023/10/21 06:10:24;;;;;;;0.00;0.00;;;14.80;99.90;;;;;;5093855;28;20238;-60
2023/10/21 06:12:49;;;;;;;0.00;0.00;;;14.90;99.90;;;;;;5094008;28;20184;-62
2023/10/21 06:15:15;;;;;;;0.00;0.00;;;14.90;99.90;;;;;;5094070;28;20191;-62
2023/10/21 06:17:40;;;;;;;0.00;0.00;;;14.90;99.90;;;;;;5091900;28;20176;-60
2023/10/21 06:20:07;;;;;;;0.00;0.00;;;14.90;99.90;;;;;;5093837;28;20175;-62
2023/10/21 06:22:33;;;;;;;0.00;0.00;;;14.90;99.90;;;;;;5093967;28;20180;-62
2023/10/21 06:24:59;;;;;;;0.00;0.00;;;14.90;99.90;;;;;;5094198;28;20671;-62
2023/10/21 06:27:25;;;;;;;0.00;0.00;;;14.90;99.90;;;;;;5092535;28;20241;-62
2023/10/21 06:29:50;;;;;;;0.00;0.00;;;14.90;99.90;;;;;;5092968;28;20617;-61
2023/10/21 06:32:16;;;;;;;0.00;0.00;;;14.90;99.90;;;;;;5092932;28;20291;-61
2023/10/21 06:34:41;;;;;;;0.00;0.00;;;14.90;99.90;;;;;;5093048;28;20199;-62
2023/10/21 06:37:08;;;;;;;0.00;0.00;;;15.00;99.90;;;;;;5093433;28;20218;-62
2023/10/21 06:39:33;;;;;;;0.00;0.00;;;15.00;99.90;;;;;;5093384;28;20180;-62
2023/10/21 06:41:59;;;;;;;0.00;0.00;;;15.00;99.90;;;;;;5091578;28;20819;-61
2023/10/21 06:44:25;;;;;;;0.00;0.00;;;15.10;99.90;;;;;;5090549;28;20192;-60
2023/10/21 06:46:51;;;;;;;0.00;0.00;;;15.10;99.90;;;;;;5092953;28;20193;-61
2023/10/21 06:49:16;;;;;;;0.00;0.00;;;15.20;99.90;;;;;;5091977;28;20173;-61
2023/10/21 06:51:42;;;;;;;0.00;0.00;;;15.20;99.90;;;;;;5093052;28;20195;-59
2023/10/21 06:54:09;;;;;;;0.00;0.00;;;15.20;99.90;;;;;;5093220;28;20229;-60
2023/10/21 06:56:35;;;;;;;0.00;0.00;;;15.20;99.90;;;;;;5093492;28;20184;-61
2023/10/21 06:59:01;;;;;;;0.00;0.00;;;15.30;99.90;;;;;;5093653;28;20536;-61
2023/10/21 07:01:27;;;;;;;0.00;0.00;;;15.60;99.90;;;;;;5093216;28;20292;-61
2023/10/21 07:03:53;;;;;;;0.00;0.00;;;16.20;99.90;;;;;;5093575;28;20180;-61
2023/10/21 07:06:20;;;;;;;0.00;0.00;;;16.70;99.90;;;;;;5093798;28;20167;-61
2023/10/21 07:08:46;;;;;;;0.00;0.00;;;17.20;99.90;;;;;;5092825;28;20744;-61
2023/10/21 07:11:12;;;;;;;0.00;0.00;;;17.60;99.90;;;;;;5092416;28;20215;-61
2023/10/21 07:13:38;;;;;;;0.00;0.00;;;17.90;99.90;;;;;;5092466;28;20535;-61
2023/10/21 07:16:10;;;;;;;0.00;0.00;;;18.10;99.90;;;;;;5092936;28;20261;-61
2023/10/21 07:18:38;;;;;;;0.00;0.00;;;18.20;99.90;;;;;;5093567;28;20172;-61
2023/10/21 07:21:04;;;;;;;0.00;0.00;;;18.30;99.90;;;;;;5093264;28;20287;-61
2023/10/21 07:23:31;;;;;;;0.00;0.00;;;18.50;99.90;;;;;;5093370;28;20540;-60
2023/10/21 07:25:56;;;;;;;0.00;0.00;;;18.70;99.90;;;;;;5093491;28;20180;-60
2023/10/21 07:28:22;;;;;;;0.00;0.00;;;18.90;99.90;;;;;;5092882;28;20176;-61
2023/10/21 07:30:49;;;;;;;0.00;0.00;;;18.80;99.90;;;;;;5093212;28;20247;-61
2023/10/21 07:33:15;;;;;;;0.00;0.00;;;18.80;99.90;;;;;;5093130;28;20304;-61
2023/10/21 07:35:40;;;;;;;0.00;0.00;;;18.70;99.90;;;;;;5092997;28;20172;-59
2023/10/21 07:38:07;;;;;;;0.00;0.00;;;18.80;99.90;;;;;;5093064;28;20180;-60
2023/10/21 07:40:32;;;;;;;0.00;0.00;;;19.00;99.90;;;;;;5093030;28;20263;-61
2023/10/21 07:42:58;;;;;;;0.00;0.00;;;19.40;99.90;;;;;;5092728;28;20259;-60
2023/10/21 07:45:24;;;;;;;0.00;0.00;;;19.60;99.20;;;;;;5092831;28;20263;-60
2023/10/21 07:47:50;;;;;;;0.00;0.00;;;19.70;98.80;;;;;;5092736;28;20176;-60
2023/10/21 07:50:17;;;;;;;0.00;0.00;;;19.70;98.60;;;;;;5092447;28;20212;-60
2023/10/21 07:52:43;;;;;;;0.00;0.00;;;19.70;98.20;;;;;;5092725;28;20271;-60
2023/10/21 07:55:12;;;;;;;0.00;0.00;;;19.60;98.20;;;;;;5092459;28;20259;-60
2023/10/21 07:57:38;;;;;;;0.00;0.00;;;19.60;98.10;;;;;;5092757;28;20176;-60
2023/10/21 08:00:05;;;;;;;0.00;0.00;;;19.80;98.40;;;;;;5092312;28;20187;-61
2023/10/21 08:02:30;;;;;;;0.00;0.00;;;20.20;98.00;;;;;;5092654;28;20190;-61
2023/10/21 08:04:56;;;;;;;0.00;0.00;;;20.40;97.50;;;;;;5092608;28;20263;-61
2023/10/21 08:07:22;;;;;;;0.00;0.00;;;20.50;97.40;;;;;;5092611;28;20176;-62
2023/10/21 08:09:48;;;;;;;0.00;0.00;;;20.40;97.20;;;;;;5092232;28;20204;-61
2023/10/21 08:12:14;;;;;;;0.00;0.00;;;20.50;97.40;;;;;;5092555;28;20172;-61
2023/10/21 08:14:40;;;;;;;0.00;0.00;;;20.50;97.20;;;;;;5092074;28;20572;-62
2023/10/21 08:17:07;;;;;;;0.00;0.00;;;20.60;97.40;;;;;;5090756;28;20179;-60
2023/10/21 08:19:33;;;;;;;0.00;0.00;;;20.40;97.00;;;;;;5092293;28;20164;-61
2023/10/21 08:21:59;;;;;;;0.00;0.00;;;20.10;96.60;;;;;;5092208;28;20535;-61
2023/10/21 08:24:24;;;;;;;0.00;0.00;;;19.60;97.00;;;;;;5091738;28;20181;-61
2023/10/21 08:26:50;;;;;;;0.00;0.00;;;19.20;97.40;;;;;;5092379;28;20255;-61
2023/10/21 08:29:16;;;;;;;0.00;0.00;;;19.00;98.00;;;;;;5092119;28;20301;-60
2023/10/21 08:31:42;;;;;;;0.00;0.00;;;18.80;97.80;;;;;;5091086;28;20204;-62
2023/10/21 08:34:12;;;;;;;0.00;0.00;;;18.60;97.70;;;;;;5091944;28;20267;-61
2023/10/21 08:36:38;;;;;;;0.65;0.57;;;18.30;97.90;;;;;;5092137;28;20178;-62
2023/10/21 08:39:07;;;;;;;0.00;0.00;;;18.30;98.30;;;;;;5092333;28;20176;-61
2023/10/21 08:41:37;;;;;;;0.00;0.00;;;18.40;98.50;;;;;;5092092;28;20172;-61
2023/10/21 08:44:02;;;;;;;0.00;0.00;;;18.40;98.10;;;;;;5092332;28;20183;-61
2023/10/21 08:46:30;;;;;;;0.00;0.00;;;18.50;97.90;;;;;;5091992;28;20256;-61
2023/10/21 08:48:57;;;;;;;0.00;0.00;;;18.40;97.90;;;;;;5090807;28;20176;-61
2023/10/21 08:51:25;;;;;;;0.00;0.00;;;18.50;97.70;;;;;;5091896;28;20299;-61
2023/10/21 08:53:53;;;;;;;0.00;0.00;;;18.70;97.80;;;;;;5091772;28;20529;-61
2023/10/21 08:56:18;;;;;;;0.00;0.00;;;18.80;96.90;;;;;;5091827;28;20218;-61
2023/10/21 08:58:46;;;;;;;0.00;0.00;;;18.80;97.00;;;;;;5091983;28;20168;-61
2023/10/21 09:01:14;;;;;;;0.00;0.00;;;18.80;96.20;;;;;;5091670;28;20696;-62
2023/10/21 09:03:41;;;;;;;0.00;0.00;;;18.80;95.80;;;;;;5091808;28;20707;-61
2023/10/21 09:06:10;;;;;;;0.00;0.00;;;18.70;96.40;;;;;;5091902;28;20183;-61
2023/10/21 09:08:36;;;;;;;0.00;0.00;;;18.80;96.70;;;;;;5091712;28;20200;-62
2023/10/21 09:11:08;;;;;;;0.00;0.00;;;19.00;97.20;;;;;;5091650;28;20303;-61
2023/10/21 09:13:35;;;;;;;0.00;0.00;;;19.00;96.20;;;;;;5091682;28;20184;-61
2023/10/21 09:16:04;;;;;;;0.00;0.00;;;18.90;95.90;;;;;;5091793;28;20180;-61
2023/10/21 09:18:30;;;;;;;0.00;0.00;;;19.00;96.30;;;;;;5091550;28;20203;-61
2023/10/21 09:20:56;;;;;;;0.00;0.00;;;19.10;96.40;;;;;;5091628;28;20553;-61
2023/10/21 09:23:21;;;;;;;0.00;0.00;;;19.10;95.60;;;;;;5091548;28;20164;-62
2023/10/21 09:25:51;;;;;;;0.00;0.00;;;19.10;96.20;;;;;;5090358;28;20180;-61
2023/10/21 09:28:24;;;;;;;0.00;0.00;;;19.20;95.90;;;;;;5089035;28;20177;-62
2023/10/21 09:31:01;;;;;;;0.00;0.00;;;19.20;95.80;;;;;;5080742;28;20223;-61
2023/10/21 09:33:27;;;;;;;0.00;0.00;;;19.20;96.20;;;;;;5093518;28;20730;-59
2023/10/21 09:36:04;;;;;;;0.00;0.00;;;19.30;96.30;;;;;;5092270;28;20184;-62
2023/10/21 09:38:36;;;;;;;0.00;0.00;;;19.20;96.00;;;;;;5093888;28;20639;-62
2023/10/21 09:41:09;;;;;;;0.00;0.00;;;19.20;96.00;;;;;;5094537;28;20199;-63
2023/10/21 09:43:38;;;;;;;0.00;0.00;;;19.20;96.00;;;;;;5095029;28;20284;-64
2023/10/21 09:46:05;;;;;;;0.00;0.00;;;19.10;96.10;;;;;;5095202;28;20172;-65
2023/10/21 09:48:35;;;;;;;0.00;0.00;;;19.10;95.60;;;;;;5093621;28;20176;-63
2023/10/21 09:51:06;;;;;;;0.00;0.00;;;19.00;95.40;;;;;;5094939;28;20216;-63
2023/10/21 09:53:38;;;;;;;0.00;0.00;;;19.00;95.40;;;;;;5093608;28;20183;-61
2023/10/21 09:56:04;;;;;;;0.00;0.00;;;19.00;95.40;;;;;;5094895;28;20187;-61
2023/10/21 09:58:31;;;;;;;0.00;0.00;;;19.00;95.80;;;;;;5094763;28;20176;-62
2023/10/21 10:01:02;;;;;;;0.00;0.00;;;19.10;95.70;;;;;;5094534;28;20595;-61
2023/10/21 10:03:28;;;;;;;0.00;0.00;;;19.20;95.40;;;;;;5094852;28;20225;-60
2023/10/21 10:05:54;;;;;;;0.00;0.00;;;19.20;95.60;;;;;;5093724;28;20254;-62
2023/10/21 10:08:20;;;;;;;0.00;0.00;;;19.30;96.10;;;;;;5090706;28;20256;-61
2023/10/21 10:10:48;;;;;;;0.00;0.00;;;19.30;95.00;;;;;;5085504;28;20749;-58
2023/10/21 10:13:15;;;;;;;0.00;0.00;;;19.40;95.50;;;;;;5093243;28;20187;-60
2023/10/21 10:15:42;;;;;;;0.00;0.00;;;19.50;95.10;;;;;;5093311;28;20230;-61
2023/10/21 10:18:19;;;;;;;0.00;0.00;;;19.50;95.00;;;;;;5094517;28;20160;-61
2023/10/21 10:20:50;;;;;;;0.00;0.00;;;19.90;96.20;;;;;;5094514;28;20168;-60
2023/10/21 10:23:18;;;;;;;0.00;0.00;;;19.90;94.90;;;;;;5094379;28;20724;-61
2023/10/21 10:25:54;;;;;;;0.00;0.00;;;20.10;95.00;;;;;;5094394;28;20176;-62
2023/10/21 10:28:23;;;;;;;0.00;0.00;;;19.90;93.60;;;;;;5093985;28;20232;-60
2023/10/21 10:30:50;;;;;;;0.00;0.00;;;19.80;94.10;;;;;;5093301;28;20255;-65
2023/10/21 10:33:18;;;;;;;0.00;0.00;;;19.80;93.80;;;;;;5091191;28;20223;-63
2023/10/21 10:35:54;;;;;;;0.00;0.00;;;19.90;94.00;;;;;;5103665;28;20236;-61
2023/10/21 10:38:28;;;;;;;0.00;0.00;;;20.00;93.80;;;;;;5092987;28;20180;-59
2023/10/21 10:41:06;;;;;;;0.00;0.00;;;20.10;94.40;;;;;;5093388;28;20176;-63
2023/10/21 10:43:32;;;;;;;0.00;0.00;;;20.10;93.60;;;;;;5092204;28;20172;-63
2023/10/21 10:46:00;;;;;;;0.00;0.00;;;20.20;93.50;;;;;;5093655;28;20725;-63
2023/10/21 10:48:26;;;;;;;0.00;0.00;;;20.20;93.60;;;;;;5093192;28;20203;-63
2023/10/21 10:51:00;;;;;;;0.00;0.00;;;20.10;93.50;;;;;;5093462;28;20742;-63
2023/10/21 10:53:26;;;;;;;0.00;0.00;;;20.20;93.20;;;;;;5093511;28;20217;-63
2023/10/21 10:55:56;;;;;;;0.00;0.00;;;20.20;93.30;;;;;;5093510;28;20274;-63
2023/10/21 10:58:23;;;;;;;0.00;0.00;;;20.30;93.30;;;;;;5093205;28;20176;-64
2023/10/21 11:00:49;;;;;;;0.00;0.00;;;20.30;93.30;;;;;;5092437;28;20180;-63
2023/10/21 11:03:41;;;;;;;0.00;0.00;;;20.40;93.20;;;;;;5093492;28;20181;-63
2023/10/21 11:06:07;;;;;;;0.00;0.00;;;20.30;93.60;;;;;;5089916;28;20639;-63
2023/10/21 11:08:32;;;;;;;0.00;0.00;;;20.40;93.00;;;;;;5093330;28;20195;-63
2023/10/21 11:11:05;;;;;;;0.00;0.00;;;20.20;93.00;;;;;;5093362;28;20219;-63
2023/10/21 11:13:32;;;;;;;0.00;0.00;;;20.00;93.50;;;;;;5093218;28;20180;-63
2023/10/21 11:15:58;;;;;;;0.00;0.00;;;19.80;93.30;;;;;;5093235;28;20544;-63
2023/10/21 11:18:26;;;;;;;0.00;0.00;;;19.60;93.60;;;;;;5093383;28;20175;-63
2023/10/21 11:20:52;;;;;;;0.00;0.00;;;19.50;93.60;;;;;;5093027;28;20176;-63
2023/10/21 11:23:19;;;;;;;0.00;0.00;;;19.70;93.90;;;;;;5093143;28;20584;-64
2023/10/21 11:25:50;;;;;;;0.00;0.00;;;20.00;94.40;;;;;;5093222;28;20179;-64
2023/10/21 11:28:17;;;;;;;0.00;0.00;;;20.30;94.20;;;;;;5093396;28;20584;-64
2023/10/21 11:30:44;;;;;;;0.00;0.00;;;20.70;93.60;;;;;;5091764;28;20619;-63
2023/10/21 11:33:10;;;;;;;0.00;0.00;;;20.80;93.60;;;;;;5092880;28;20276;-63
2023/10/21 11:35:38;;;;;;;0.00;0.00;;;20.80;92.90;;;;;;5093052;28;20643;-63
2023/10/21 11:38:04;;;;;;;0.00;0.00;;;20.80;93.50;;;;;;5093318;28;20168;-63
2023/10/21 11:40:30;;;;;;;0.00;0.00;;;20.60;91.80;;;;;;5092773;28;20272;-63
2023/10/21 11:43:06;;;;;;;0.00;0.00;;;20.40;92.00;;;;;;5075206;28;20647;-63
2023/10/21 11:45:32;;;;;;;0.00;0.00;;;20.20;92.40;;;;;;5092969;28;20500;-63
2023/10/21 11:48:01;;;;;;;0.00;0.00;;;20.10;93.20;;;;;;5092638;28;20187;-63
2023/10/21 11:50:33;;;;;;;0.00;0.00;;;20.20;92.60;;;;;;5087845;28;20188;-63
2023/10/21 11:53:06;;;;;;;0.00;0.00;;;20.00;92.30;;;;;;5091087;28;20191;-63
2023/10/21 11:56:01;;;;;;;0.00;0.00;;;19.80;92.90;;;;;;5091915;28;20263;-62
2023/10/21 11:59:29;;;;;;;0.00;0.00;;;19.70;93.20;;;;;;5091966;28;20236;-63
2023/10/21 12:04:38;;;;;;;0.00;0.00;;;19.70;93.10;;;;;;5092035;28;20187;-61
2023/10/21 12:15:17;;;;;;;0.00;0.00;;;19.90;91.80;;;;;;5092273;28;20553;-63
2023/10/21 12:29:17;;;;;;;0.00;0.00;;;19.30;91.10;;;;;;5091556;28;20190;-63
2023/10/21 12:39:37;;;;;;;0.00;0.00;;;19.60;91.60;;;;;;5091989;28;20175;-63
2023/10/21 12:42:18;;;;;;;0.00;0.00;;;19.80;91.40;;;;;;5092134;28;20254;-63
2023/10/21 12:44:51;;;;;;;0.00;0.00;;;19.80;91.30;;;;;;5091997;28;20180;-62
2023/10/21 12:47:17;;;;;;;0.00;0.00;;;20.00;91.20;;;;;;5091287;28;20172;-62
2023/10/21 12:49:43;;;;;;;0.00;0.00;;;19.80;90.70;;;;;;5091578;28;20255;-63
2023/10/21 12:52:11;;;;;;;0.00;0.00;;;19.80;90.70;;;;;;5091239;28;20184;-63
2023/10/21 12:54:36;;;;;;;0.00;0.00;;;19.70;90.20;;;;;;5091593;28;20669;-62
2023/10/21 12:57:02;;;;;;;0.00;0.00;;;19.50;90.00;;;;;;5090696;28;20176;-62
2023/10/21 12:59:28;;;;;;;0.00;0.00;;;19.50;90.40;;;;;;5091751;28;20176;-63
2023/10/21 13:01:54;;;;;;;0.00;0.00;;;19.50;90.70;;;;;;5089392;28;20176;-63
2023/10/21 13:04:20;;;;;;;0.00;0.00;;;19.50;91.00;;;;;;5090344;28;20255;-63
2023/10/21 13:06:46;;;;;;;0.00;0.00;;;19.40;90.70;;;;;;5090070;28;20225;-63
2023/10/21 13:09:21;;;;;;;0.00;0.00;;;19.30;91.10;;;;;;5091343;28;20676;-63
2023/10/21 13:11:50;;;;;;;0.00;0.00;;;19.20;90.90;;;;;;5091573;28;20207;-63
2023/10/21 13:14:17;;;;;;;0.00;0.00;;;19.10;90.80;;;;;;5091794;28;20204;-63
2023/10/21 13:16:43;;;;;;;0.00;0.00;;;19.10;91.00;;;;;;5091580;28;20183;-63
2023/10/21 13:19:08;;;;;;;0.00;0.00;;;19.10;91.10;;;;;;5091721;28;20168;-63